首页
METAR-TAF:

METAR-TAF

机场 :

玛丽, 土库曼斯坦

纬度: 37-36-24N, 经度: 061-54-05E, 海拔: 222米

当前天气观测

该预报发布于20分钟前的14:00 UTC
风速8节,风向
温度 9°C
湿度 66%
气压 1021 hPa
能見度: 6000

METAR: UTAM 291400Z 09008KT 6000 NSC 09/03 Q1021 R88/CLRD70 NOSIG

时间: 19:20 (14:20 UTC)

预报

该预报发布于3小时和50分钟前的10:30 UTC
预报有效从29日的 12点(UTC)到 30日的 12点(UTC)
风速16节,风向
能見度: 6000
散云层高于3000英尺
短暂存在
从 29日的 12点(UTC)到 29日的 18点(UTC)
风速14节,风向东南,有时为24节阵风
短暂存在
从 29日的 18点(UTC)到 29日的 24点(UTC)
风速12节,风向南转南东,有时为22节阵风
能見度: 5000
多云层高于2000英尺
短暂存在
从 30日的 00点(UTC)到 30日的 04点(UTC)
风速12节,风向东转东南
能見度: 2000
多云层高于500英尺
轻雾

TAF: UTAM 291030Z 2912/3012 09016KT 6000 SCT030 TEMPO 2912/2918 13014G24KT TEMPO 2918/2924 15012G22KT 5000 BKN020 TEMPO 3000/3004 12012KT 2000 BR BKN005

超过4000个机场的气象观测和天气预报(METAR&TAF报告)。

可查询的气象台以黄色和红色小点在地图上表示。

将鼠标移到小点上方,可查看气象台名称。

然后点击查看天气观测和预报。

如需切换地图:点击带黑十字的绿色按钮放大地图;点击带横线的绿色按钮缩小地图;或者点击绿色箭头查看邻近地区的地图。


METAR-TAF: